sensor_id;sensor_type;location;lat;lon;timestamp;temperature;humidity
3794;DHT22;1912;51.358;12.282;2023-08-07T03:47:16;14.40;1.00
3794;DHT22;1912;51.358;12.282;2023-08-07T03:49:42;14.40;1.00
3794;DHT22;1912;51.358;12.282;2023-08-07T03:52:08;14.40;1.00
3794;DHT22;1912;51.358;12.282;2023-08-07T03:54:33;14.40;1.00
3794;DHT22;1912;51.358;12.282;2023-08-07T03:56:59;14.40;1.00
3794;DHT22;1912;51.358;12.282;2023-08-07T03:59:25;14.30;1.00
3794;DHT22;1912;51.358;12.282;2023-08-07T04:01:50;14.30;1.00
3794;DHT22;1912;51.358;12.282;2023-08-07T04:04:16;14.30;1.00
3794;DHT22;1912;51.358;12.282;2023-08-07T04:06:42;14.20;1.00
3794;DHT22;1912;51.358;12.282;2023-08-07T04:09:09;14.20;1.00
3794;DHT22;1912;51.358;12.282;2023-08-07T04:11:36;14.20;1.00
3794;DHT22;1912;51.358;12.282;2023-08-07T04:14:02;14.30;1.00
3794;DHT22;1912;51.358;12.282;2023-08-07T04:16:27;14.30;1.00
3794;DHT22;1912;51.358;12.282;2023-08-07T04:18:53;14.30;1.00
3794;DHT22;1912;51.358;12.282;2023-08-07T04:21:19;14.30;1.00
3794;DHT22;1912;51.358;12.282;2023-08-07T04:23:44;14.30;1.00
3794;DHT22;1912;51.358;12.282;2023-08-07T04:26:10;14.30;1.00
3794;DHT22;1912;51.358;12.282;2023-08-07T04:28:36;14.30;1.00
3794;DHT22;1912;51.358;12.282;2023-08-07T04:31:01;14.30;1.00
3794;DHT22;1912;51.358;12.282;2023-08-07T04:33:28;14.40;1.00
3794;DHT22;1912;51.358;12.282;2023-08-07T04:35:54;14.30;1.00
3794;DHT22;1912;51.358;12.282;2023-08-07T04:38:19;14.40;1.00
3794;DHT22;1912;51.358;12.282;2023-08-07T04:40:49;14.30;1.00
3794;DHT22;1912;51.358;12.282;2023-08-07T04:43:17;14.40;1.00
3794;DHT22;1912;51.358;12.282;2023-08-07T04:45:43;14.40;1.00
3794;DHT22;1912;51.358;12.282;2023-08-07T04:48:10;14.40;1.00
3794;DHT22;1912;51.358;12.282;2023-08-07T04:50:39;14.40;1.00
3794;DHT22;1912;51.358;12.282;2023-08-07T04:53:06;14.40;1.00
3794;DHT22;1912;51.358;12.282;2023-08-07T04:55:32;14.40;1.00
3794;DHT22;1912;51.358;12.282;2023-08-07T04:57:58;14.40;1.00
3794;DHT22;1912;51.358;12.282;2023-08-07T05:00:24;14.40;1.00
3794;DHT22;1912;51.358;12.282;2023-08-07T05:02:49;14.40;1.00
3794;DHT22;1912;51.358;12.282;2023-08-07T05:05:16;14.40;1.00
3794;DHT22;1912;51.358;12.282;2023-08-07T05:07:42;14.40;1.00
3794;DHT22;1912;51.358;12.282;2023-08-07T05:10:09;14.40;1.00
3794;DHT22;1912;51.358;12.282;2023-08-07T05:12:35;14.50;1.00
3794;DHT22;1912;51.358;12.282;2023-08-07T05:15:01;14.50;1.00
3794;DHT22;1912;51.358;12.282;2023-08-07T05:17:27;14.60;1.00
3794;DHT22;1912;51.358;12.282;2023-08-07T05:19:52;14.60;1.00
3794;DHT22;1912;51.358;12.282;2023-08-07T05:22:18;14.60;1.00
3794;DHT22;1912;51.358;12.282;2023-08-07T05:24:44;14.60;1.00
3794;DHT22;1912;51.358;12.282;2023-08-07T05:27:11;14.60;1.00
3794;DHT22;1912;51.358;12.282;2023-08-07T05:29:37;14.60;1.00
3794;DHT22;1912;51.358;12.282;2023-08-07T05:32:10;14.60;1.00
3794;DHT22;1912;51.358;12.282;2023-08-07T05:34:39;14.60;1.00
3794;DHT22;1912;51.358;12.282;2023-08-07T05:37:05;14.60;1.00
3794;DHT22;1912;51.358;12.282;2023-08-07T05:39:32;14.60;1.00
3794;DHT22;1912;51.358;12.282;2023-08-07T05:41:58;14.60;1.00
3794;DHT22;1912;51.358;12.282;2023-08-07T05:44:24;14.70;1.00
3794;DHT22;1912;51.358;12.282;2023-08-07T05:46:50;14.70;1.00
3794;DHT22;1912;51.358;12.282;2023-08-07T05:49:16;14.70;1.00
3794;DHT22;1912;51.358;12.282;2023-08-07T05:51:42;14.80;1.00
3794;DHT22;1912;51.358;12.282;2023-08-07T05:54:08;14.80;1.00
3794;DHT22;1912;51.358;12.282;2023-08-07T05:56:34;14.80;1.00
3794;DHT22;1912;51.358;12.282;2023-08-07T05:58:59;14.80;1.00
3794;DHT22;1912;51.358;12.282;2023-08-07T06:01:25;14.80;1.00
3794;DHT22;1912;51.358;12.282;2023-08-07T06:03:59;14.90;1.00
3794;DHT22;1912;51.358;12.282;2023-08-07T06:06:25;14.90;1.00
3794;DHT22;1912;51.358;12.282;2023-08-07T06:08:56;15.00;1.00
3794;DHT22;1912;51.358;12.282;2023-08-07T06:11:22;15.00;1.00
3794;DHT22;1912;51.358;12.282;2023-08-07T06:13:48;15.10;1.00
3794;DHT22;1912;51.358;12.282;2023-08-07T06:16:14;15.00;1.00
3794;DHT22;1912;51.358;12.282;2023-08-07T06:18:40;15.10;1.00
3794;DHT22;1912;51.358;12.282;2023-08-07T06:21:05;15.10;1.00
3794;DHT22;1912;51.358;12.282;2023-08-07T06:23:33;15.10;1.00
3794;DHT22;1912;51.358;12.282;2023-08-07T06:25:59;15.10;1.00
3794;DHT22;1912;51.358;12.282;2023-08-07T06:28:29;15.20;1.00
3794;DHT22;1912;51.358;12.282;2023-08-07T06:31:08;15.30;1.00
3794;DHT22;1912;51.358;12.282;2023-08-07T06:33:35;15.40;1.00
3794;DHT22;1912;51.358;12.282;2023-08-07T06:36:03;15.40;1.00
3794;DHT22;1912;51.358;12.282;2023-08-07T06:38:30;15.50;1.00
3794;DHT22;1912;51.358;12.282;2023-08-07T06:40:56;15.50;1.00
3794;DHT22;1912;51.358;12.282;2023-08-07T06:43:22;15.50;1.00
3794;DHT22;1912;51.358;12.282;2023-08-07T06:45:51;15.60;1.00
3794;DHT22;1912;51.358;12.282;2023-08-07T06:48:18;15.70;1.00
3794;DHT22;1912;51.358;12.282;2023-08-07T06:50:46;15.80;1.00
3794;DHT22;1912;51.358;12.282;2023-08-07T06:53:15;15.80;1.00
3794;DHT22;1912;51.358;12.282;2023-08-07T06:55:42;15.80;1.00
3794;DHT22;1912;51.358;12.282;2023-08-07T06:58:08;15.90;1.00
3794;DHT22;1912;51.358;12.282;2023-08-07T07:00:34;15.90;1.00
3794;DHT22;1912;51.358;12.282;2023-08-07T07:03:01;16.00;1.00
3794;DHT22;1912;51.358;12.282;2023-08-07T07:05:27;16.10;1.00
3794;DHT22;1912;51.358;12.282;2023-08-07T07:07:53;16.20;1.00
3794;DHT22;1912;51.358;12.282;2023-08-07T07:10:20;16.20;1.00
3794;DHT22;1912;51.358;12.282;2023-08-07T07:12:46;16.30;1.00
3794;DHT22;1912;51.358;12.282;2023-08-07T07:15:12;16.30;1.00
3794;DHT22;1912;51.358;12.282;2023-08-07T07:17:37;16.30;1.00
3794;DHT22;1912;51.358;12.282;2023-08-07T07:20:03;16.30;1.00
3794;DHT22;1912;51.358;12.282;2023-08-07T07:22:29;16.40;1.00
3794;DHT22;1912;51.358;12.282;2023-08-07T07:24:55;16.50;1.00
3794;DHT22;1912;51.358;12.282;2023-08-07T07:27:21;16.40;1.00
3794;DHT22;1912;51.358;12.282;2023-08-07T07:29:48;16.40;1.00
3794;DHT22;1912;51.358;12.282;2023-08-07T07:32:14;16.30;1.00
3794;DHT22;1912;51.358;12.282;2023-08-07T07:34:39;16.30;1.00
3794;DHT22;1912;51.358;12.282;2023-08-07T07:37:05;16.30;1.00
3794;DHT22;1912;51.358;12.282;2023-08-07T07:39:31;16.30;1.00
3794;DHT22;1912;51.358;12.282;2023-08-07T07:41:57;16.40;1.00
3794;DHT22;1912;51.358;12.282;2023-08-07T07:44:22;16.40;1.00
3794;DHT22;1912;51.358;12.282;2023-08-07T07:46:48;16.70;1.00
3794;DHT22;1912;51.358;12.282;2023-08-07T07:49:14;16.80;1.00
3794;DHT22;1912;51.358;12.282;2023-08-07T07:51:40;16.90;1.00
3794;DHT22;1912;51.358;12.282;2023-08-07T07:54:06;17.20;1.00
3794;DHT22;1912;51.358;12.282;2023-08-07T07:56:32;17.50;1.00
3794;DHT22;1912;51.358;12.282;2023-08-07T07:58:58;17.60;1.00
3794;DHT22;1912;51.358;12.282;2023-08-07T08:01:24;17.50;1.00
3794;DHT22;1912;51.358;12.282;2023-08-07T08:03:49;17.60;1.00
3794;DHT22;1912;51.358;12.282;2023-08-07T08:06:15;17.60;1.00
3794;DHT22;1912;51.358;12.282;2023-08-07T08:08:41;17.60;1.00
3794;DHT22;1912;51.358;12.282;2023-08-07T08:11:08;17.50;1.00
3794;DHT22;1912;51.358;12.282;2023-08-07T08:13:34;17.30;1.00
3794;DHT22;1912;51.358;12.282;2023-08-07T08:16:01;17.30;1.00
3794;DHT22;1912;51.358;12.282;2023-08-07T08:18:26;17.40;1.00
3794;DHT22;1912;51.358;12.282;2023-08-07T08:20:53;17.40;1.00
3794;DHT22;1912;51.358;12.282;2023-08-07T08:23:19;17.50;1.00
3794;DHT22;1912;51.358;12.282;2023-08-07T08:25:45;17.30;1.00
3794;DHT22;1912;51.358;12.282;2023-08-07T08:28:10;17.40;1.00
3794;DHT22;1912;51.358;12.282;2023-08-07T08:30:36;17.20;1.00
3794;DHT22;1912;51.358;12.282;2023-08-07T08:33:02;17.10;1.00
3794;DHT22;1912;51.358;12.282;2023-08-07T08:35:28;17.30;1.00
3794;DHT22;1912;51.358;12.282;2023-08-07T08:37:53;17.50;1.00
3794;DHT22;1912;51.358;12.282;2023-08-07T08:40:19;17.90;1.00
3794;DHT22;1912;51.358;12.282;2023-08-07T08:42:45;17.90;1.00
3794;DHT22;1912;51.358;12.282;2023-08-07T08:45:14;17.90;1.00
3794;DHT22;1912;51.358;12.282;2023-08-07T08:47:41;18.40;1.00
3794;DHT22;1912;51.358;12.282;2023-08-07T08:50:09;18.10;1.00
3794;DHT22;1912;51.358;12.282;2023-08-07T08:52:42;18.00;1.00
3794;DHT22;1912;51.358;12.282;2023-08-07T08:55:10;17.90;1.00
3794;DHT22;1912;51.358;12.282;2023-08-07T08:57:38;17.80;1.00
3794;DHT22;1912;51.358;12.282;2023-08-07T09:00:06;17.70;1.00
3794;DHT22;1912;51.358;12.282;2023-08-07T09:02:47;17.70;1.00
3794;DHT22;1912;51.358;12.282;2023-08-07T09:05:15;17.70;1.00
3794;DHT22;1912;51.358;12.282;2023-08-07T09:07:44;18.00;1.00
3794;DHT22;1912;51.358;12.282;2023-08-07T09:10:12;18.00;1.00
3794;DHT22;1912;51.358;12.282;2023-08-07T09:13:06;17.90;1.00
3794;DHT22;1912;51.358;12.282;2023-08-07T09:15:36;18.20;1.00
3794;DHT22;1912;51.358;12.282;2023-08-07T09:18:05;18.50;1.00
3794;DHT22;1912;51.358;12.282;2023-08-07T09:20:36;18.90;1.00
3794;DHT22;1912;51.358;12.282;2023-08-07T09:23:05;19.10;1.00
3794;DHT22;1912;51.358;12.282;2023-08-07T09:25:31;18.90;1.00
3794;DHT22;1912;51.358;12.282;2023-08-07T09:28:01;19.30;1.00
3794;DHT22;1912;51.358;12.282;2023-08-07T09:30:30;19.40;1.00
3794;DHT22;1912;51.358;12.282;2023-08-07T09:33:01;19.50;1.00
3794;DHT22;1912;51.358;12.282;2023-08-07T09:35:29;19.80;1.00
3794;DHT22;1912;51.358;12.282;2023-08-07T09:37:59;19.50;1.00
3794;DHT22;1912;51.358;12.282;2023-08-07T09:40:25;19.50;1.00
3794;DHT22;1912;51.358;12.282;2023-08-07T09:42:52;19.70;1.00
3794;DHT22;1912;51.358;12.282;2023-08-07T09:45:23;19.40;1.00
3794;DHT22;1912;51.358;12.282;2023-08-07T09:48:22;19.10;1.00
3794;DHT22;1912;51.358;12.282;2023-08-07T09:50:50;19.10;1.00
3794;DHT22;1912;51.358;12.282;2023-08-07T09:53:16;18.90;1.00
3794;DHT22;1912;51.358;12.282;2023-08-07T09:55:41;18.90;1.00
3794;DHT22;1912;51.358;12.282;2023-08-07T09:58:08;18.80;1.00
3794;DHT22;1912;51.358;12.282;2023-08-07T10:00:37;18.50;1.00
3794;DHT22;1912;51.358;12.282;2023-08-07T10:03:04;18.20;1.00
3794;DHT22;1912;51.358;12.282;2023-08-07T10:05:30;17.90;1.00
3794;DHT22;1912;51.358;12.282;2023-08-07T10:07:57;17.70;1.00
3794;DHT22;1912;51.358;12.282;2023-08-07T10:10:23;17.60;1.00
3794;DHT22;1912;51.358;12.282;2023-08-07T10:12:50;17.50;1.00
3794;DHT22;1912;51.358;12.282;2023-08-07T10:15:17;17.40;1.00
3794;DHT22;1912;51.358;12.282;2023-08-07T10:17:44;17.20;1.00
3794;DHT22;1912;51.358;12.282;2023-08-07T10:20:10;17.20;1.00
3794;DHT22;1912;51.358;12.282;2023-08-07T10:22:38;17.10;1.00
3794;DHT22;1912;51.358;12.282;2023-08-07T10:25:05;17.20;1.00
3794;DHT22;1912;51.358;12.282;2023-08-07T10:27:34;17.00;1.00
3794;DHT22;1912;51.358;12.282;2023-08-07T10:30:04;17.20;1.00
3794;DHT22;1912;51.358;12.282;2023-08-07T10:32:33;17.30;1.00
3794;DHT22;1912;51.358;12.282;2023-08-07T10:35:03;17.10;1.00
3794;DHT22;1912;51.358;12.282;2023-08-07T10:37:43;17.20;1.00
3794;DHT22;1912;51.358;12.282;2023-08-07T10:40:11;17.10;1.00
3794;DHT22;1912;51.358;12.282;2023-08-07T10:45:20;17.20;1.00
3794;DHT22;1912;51.358;12.282;2023-08-07T10:48:13;17.30;1.00
3794;DHT22;1912;51.358;12.282;2023-08-07T10:53:24;18.80;1.00
3794;DHT22;1912;51.358;12.282;2023-08-07T10:56:03;18.70;1.00
3794;DHT22;1912;51.358;12.282;2023-08-07T10:58:33;18.60;1.00
3794;DHT22;1912;51.358;12.282;2023-08-07T11:04:06;18.40;1.00
3794;DHT22;1912;51.358;12.282;2023-08-07T11:06:36;18.30;1.00
3794;DHT22;1912;51.358;12.282;2023-08-07T11:09:04;18.20;1.00
3794;DHT22;1912;51.358;12.282;2023-08-07T11:11:47;18.30;1.00
3794;DHT22;1912;51.358;12.282;2023-08-07T11:14:18;18.30;1.00
3794;DHT22;1912;51.358;12.282;2023-08-07T11:16:45;18.70;1.00
3794;DHT22;1912;51.358;12.282;2023-08-07T11:19:17;18.60;1.00
3794;DHT22;1912;51.358;12.282;2023-08-07T11:21:44;18.50;1.00
3794;DHT22;1912;51.358;12.282;2023-08-07T11:24:12;18.90;1.00
3794;DHT22;1912;51.358;12.282;2023-08-07T11:26:38;19.00;1.00
3794;DHT22;1912;51.358;12.282;2023-08-07T11:29:04;19.30;1.00
3794;DHT22;1912;51.358;12.282;2023-08-07T11:31:30;19.50;1.00
3794;DHT22;1912;51.358;12.282;2023-08-07T11:33:57;19.60;1.00
3794;DHT22;1912;51.358;12.282;2023-08-07T11:36:23;19.70;1.00
3794;DHT22;1912;51.358;12.282;2023-08-07T11:38:49;19.60;1.00
3794;DHT22;1912;51.358;12.282;2023-08-07T11:41:16;19.60;1.00
3794;DHT22;1912;51.358;12.282;2023-08-07T11:43:43;19.40;1.00
3794;DHT22;1912;51.358;12.282;2023-08-07T11:46:10;19.20;1.00
3794;DHT22;1912;51.358;12.282;2023-08-07T11:48:38;19.20;1.00
3794;DHT22;1912;51.358;12.282;2023-08-07T11:51:06;19.70;1.00
3794;DHT22;1912;51.358;12.282;2023-08-07T11:53:33;20.00;1.00
3794;DHT22;1912;51.358;12.282;2023-08-07T11:58:43;19.70;1.00
3794;DHT22;1912;51.358;12.282;2023-08-07T12:01:14;19.70;1.00
3794;DHT22;1912;51.358;12.282;2023-08-07T12:03:52;19.80;1.00
3794;DHT22;1912;51.358;12.282;2023-08-07T12:06:20;19.60;1.00
3794;DHT22;1912;51.358;12.282;2023-08-07T12:08:49;19.50;1.00
3794;DHT22;1912;51.358;12.282;2023-08-07T12:11:19;19.40;1.00
3794;DHT22;1912;51.358;12.282;2023-08-07T12:13:46;19.80;1.00
3794;DHT22;1912;51.358;12.282;2023-08-07T12:16:14;20.40;1.00
3794;DHT22;1912;51.358;12.282;2023-08-07T12:18:44;20.30;1.00
3794;DHT22;1912;51.358;12.282;2023-08-07T12:21:19;20.50;1.00
3794;DHT22;1912;51.358;12.282;2023-08-07T12:23:48;20.00;1.00
3794;DHT22;1912;51.358;12.282;2023-08-07T12:26:14;20.10;1.00
3794;DHT22;1912;51.358;12.282;2023-08-07T12:28:40;20.00;1.00
3794;DHT22;1912;51.358;12.282;2023-08-07T12:31:06;19.70;1.00
3794;DHT22;1912;51.358;12.282;2023-08-07T12:33:32;19.40;1.00
3794;DHT22;1912;51.358;12.282;2023-08-07T12:35:59;19.30;1.00
3794;DHT22;1912;51.358;12.282;2023-08-07T12:38:25;19.20;1.00
3794;DHT22;1912;51.358;12.282;2023-08-07T12:40:52;19.30;1.00
3794;DHT22;1912;51.358;12.282;2023-08-07T12:43:17;19.20;1.00
3794;DHT22;1912;51.358;12.282;2023-08-07T12:45:43;19.10;1.00
3794;DHT22;1912;51.358;12.282;2023-08-07T12:48:09;18.70;1.00
3794;DHT22;1912;51.358;12.282;2023-08-07T12:50:35;18.80;1.00
3794;DHT22;1912;51.358;12.282;2023-08-07T12:53:01;18.80;1.00
3794;DHT22;1912;51.358;12.282;2023-08-07T12:55:27;18.70;1.00
3794;DHT22;1912;51.358;12.282;2023-08-07T12:57:54;18.90;1.00
3794;DHT22;1912;51.358;12.282;2023-08-07T13:00:21;18.80;1.00
3794;DHT22;1912;51.358;12.282;2023-08-07T13:02:48;18.80;1.00
3794;DHT22;1912;51.358;12.282;2023-08-07T13:05:16;18.70;1.00
3794;DHT22;1912;51.358;12.282;2023-08-07T13:07:44;18.70;1.00
3794;DHT22;1912;51.358;12.282;2023-08-07T13:10:12;18.80;1.00
3794;DHT22;1912;51.358;12.282;2023-08-07T13:12:41;19.70;1.00
3794;DHT22;1912;51.358;12.282;2023-08-07T13:15:10;20.50;1.00
3794;DHT22;1912;51.358;12.282;2023-08-07T13:17:38;20.70;1.00
3794;DHT22;1912;51.358;12.282;2023-08-07T13:20:05;20.60;1.00
3794;DHT22;1912;51.358;12.282;2023-08-07T13:22:39;20.50;1.00
3794;DHT22;1912;51.358;12.282;2023-08-07T13:25:07;19.70;1.00
3794;DHT22;1912;51.358;12.282;2023-08-07T13:27:34;19.10;1.00
3794;DHT22;1912;51.358;12.282;2023-08-07T13:30:01;18.60;1.00
3794;DHT22;1912;51.358;12.282;2023-08-07T13:32:28;18.20;1.00
3794;DHT22;1912;51.358;12.282;2023-08-07T13:34:54;17.90;1.00
3794;DHT22;1912;51.358;12.282;2023-08-07T13:37:19;17.30;1.00
3794;DHT22;1912;51.358;12.282;2023-08-07T13:39:45;17.10;1.00
3794;DHT22;1912;51.358;12.282;2023-08-07T13:42:13;16.80;1.00
3794;DHT22;1912;51.358;12.282;2023-08-07T13:44:39;16.80;1.00
3794;DHT22;1912;51.358;12.282;2023-08-07T13:47:05;16.70;1.00
3794;DHT22;1912;51.358;12.282;2023-08-07T13:49:32;16.60;1.00
3794;DHT22;1912;51.358;12.282;2023-08-07T13:51:58;16.60;1.00
3794;DHT22;1912;51.358;12.282;2023-08-07T13:54:23;16.60;1.00
3794;DHT22;1912;51.358;12.282;2023-08-07T13:56:49;16.70;1.00
3794;DHT22;1912;51.358;12.282;2023-08-07T13:59:15;17.10;1.00
3794;DHT22;1912;51.358;12.282;2023-08-07T14:01:41;17.10;1.00
3794;DHT22;1912;51.358;12.282;2023-08-07T14:04:07;17.00;1.00
3794;DHT22;1912;51.358;12.282;2023-08-07T14:06:33;17.00;1.00
3794;DHT22;1912;51.358;12.282;2023-08-07T14:08:59;17.40;1.00
3794;DHT22;1912;51.358;12.282;2023-08-07T14:11:24;17.60;1.00
3794;DHT22;1912;51.358;12.282;2023-08-07T14:13:58;17.40;1.00
3794;DHT22;1912;51.358;12.282;2023-08-07T14:16:25;17.30;1.00
3794;DHT22;1912;51.358;12.282;2023-08-07T14:18:50;17.10;1.00
3794;DHT22;1912;51.358;12.282;2023-08-07T14:21:16;16.50;1.00
3794;DHT22;1912;51.358;12.282;2023-08-07T14:23:42;16.30;1.00
3794;DHT22;1912;51.358;12.282;2023-08-07T14:26:10;16.20;1.00
3794;DHT22;1912;51.358;12.282;2023-08-07T14:28:37;15.90;1.00
3794;DHT22;1912;51.358;12.282;2023-08-07T14:31:06;15.80;1.00
3794;DHT22;1912;51.358;12.282;2023-08-07T14:33:32;15.70;1.00
3794;DHT22;1912;51.358;12.282;2023-08-07T14:35:58;15.60;1.00
3794;DHT22;1912;51.358;12.282;2023-08-07T14:38:25;15.60;1.00
3794;DHT22;1912;51.358;12.282;2023-08-07T14:40:51;15.60;1.00
3794;DHT22;1912;51.358;12.282;2023-08-07T14:43:16;15.60;1.00
3794;DHT22;1912;51.358;12.282;2023-08-07T14:45:42;15.80;1.00
3794;DHT22;1912;51.358;12.282;2023-08-07T14:48:08;16.10;1.00
3794;DHT22;1912;51.358;12.282;2023-08-07T14:50:33;16.20;1.00
3794;DHT22;1912;51.358;12.282;2023-08-07T14:52:59;16.50;1.00
3794;DHT22;1912;51.358;12.282;2023-08-07T14:55:25;17.00;1.00
3794;DHT22;1912;51.358;12.282;2023-08-07T14:57:50;17.00;1.00
3794;DHT22;1912;51.358;12.282;2023-08-07T15:00:16;17.00;1.00
3794;DHT22;1912;51.358;12.282;2023-08-07T15:02:43;17.10;1.00
3794;DHT22;1912;51.358;12.282;2023-08-07T15:05:09;17.20;1.00
3794;DHT22;1912;51.358;12.282;2023-08-07T15:07:34;17.40;1.00
3794;DHT22;1912;51.358;12.282;2023-08-07T15:10:00;17.80;1.00
3794;DHT22;1912;51.358;12.282;2023-08-07T15:12:26;18.00;1.00
3794;DHT22;1912;51.358;12.282;2023-08-07T15:14:52;18.00;1.00
3794;DHT22;1912;51.358;12.282;2023-08-07T15:17:17;17.90;1.00
3794;DHT22;1912;51.358;12.282;2023-08-07T15:19:43;17.70;1.00
3794;DHT22;1912;51.358;12.282;2023-08-07T15:22:09;17.50;1.00
3794;DHT22;1912;51.358;12.282;2023-08-07T15:24:34;17.40;1.00
3794;DHT22;1912;51.358;12.282;2023-08-07T15:27:00;17.30;1.00
3794;DHT22;1912;51.358;12.282;2023-08-07T15:29:26;17.10;1.00
3794;DHT22;1912;51.358;12.282;2023-08-07T15:31:51;17.00;1.00
3794;DHT22;1912;51.358;12.282;2023-08-07T15:34:17;17.00;1.00
3794;DHT22;1912;51.358;12.282;2023-08-07T15:36:43;16.80;1.00
3794;DHT22;1912;51.358;12.282;2023-08-07T15:39:09;16.50;1.00
3794;DHT22;1912;51.358;12.282;2023-08-07T15:41:34;16.40;1.00
3794;DHT22;1912;51.358;12.282;2023-08-07T15:44:01;16.40;1.00
3794;DHT22;1912;51.358;12.282;2023-08-07T15:46:27;16.60;1.00
3794;DHT22;1912;51.358;12.282;2023-08-07T15:48:53;17.00;1.00
3794;DHT22;1912;51.358;12.282;2023-08-07T15:51:20;17.20;1.00
3794;DHT22;1912;51.358;12.282;2023-08-07T15:53:46;17.30;1.00
3794;DHT22;1912;51.358;12.282;2023-08-07T15:56:12;17.10;1.00
3794;DHT22;1912;51.358;12.282;2023-08-07T15:58:38;17.00;1.00
3794;DHT22;1912;51.358;12.282;2023-08-07T16:01:03;17.00;1.00
3794;DHT22;1912;51.358;12.282;2023-08-07T16:03:29;16.90;1.00
3794;DHT22;1912;51.358;12.282;2023-08-07T16:05:55;16.90;1.00
3794;DHT22;1912;51.358;12.282;2023-08-07T16:08:20;16.90;1.00
3794;DHT22;1912;51.358;12.282;2023-08-07T16:10:46;16.90;1.00
3794;DHT22;1912;51.358;12.282;2023-08-07T16:13:12;16.80;1.00
3794;DHT22;1912;51.358;12.282;2023-08-07T16:15:39;16.90;1.00
3794;DHT22;1912;51.358;12.282;2023-08-07T16:18:06;17.00;1.00
3794;DHT22;1912;51.358;12.282;2023-08-07T16:20:32;17.00;1.00
3794;DHT22;1912;51.358;12.282;2023-08-07T16:22:58;16.80;1.00
3794;DHT22;1912;51.358;12.282;2023-08-07T16:25:23;16.70;1.00
3794;DHT22;1912;51.358;12.282;2023-08-07T16:27:49;16.60;1.00
3794;DHT22;1912;51.358;12.282;2023-08-07T16:30:16;16.50;1.00
3794;DHT22;1912;51.358;12.282;2023-08-07T16:32:42;16.50;1.00
3794;DHT22;1912;51.358;12.282;2023-08-07T16:35:08;16.40;1.00
3794;DHT22;1912;51.358;12.282;2023-08-07T16:37:34;16.40;1.00
3794;DHT22;1912;51.358;12.282;2023-08-07T16:40:00;16.30;1.00
3794;DHT22;1912;51.358;12.282;2023-08-07T16:42:26;16.30;1.00
3794;DHT22;1912;51.358;12.282;2023-08-07T16:44:51;16.30;1.00
3794;DHT22;1912;51.358;12.282;2023-08-07T16:47:17;16.30;1.00
3794;DHT22;1912;51.358;12.282;2023-08-07T16:49:43;16.70;1.00
3794;DHT22;1912;51.358;12.282;2023-08-07T16:52:09;16.90;1.00
3794;DHT22;1912;51.358;12.282;2023-08-07T16:54:35;17.30;1.00
3794;DHT22;1912;51.358;12.282;2023-08-07T16:57:01;17.40;1.00
3794;DHT22;1912;51.358;12.282;2023-08-07T16:59:28;17.70;1.00
3794;DHT22;1912;51.358;12.282;2023-08-07T17:01:57;17.40;1.00
3794;DHT22;1912;51.358;12.282;2023-08-07T17:04:22;17.10;1.00
3794;DHT22;1912;51.358;12.282;2023-08-07T17:06:48;16.90;1.00
3794;DHT22;1912;51.358;12.282;2023-08-07T17:09:14;16.80;1.00
3794;DHT22;1912;51.358;12.282;2023-08-07T17:11:44;16.90;1.00
3794;DHT22;1912;51.358;12.282;2023-08-07T17:14:10;17.00;1.00
3794;DHT22;1912;51.358;12.282;2023-08-07T17:16:36;17.00;1.00
3794;DHT22;1912;51.358;12.282;2023-08-07T17:19:01;17.00;1.00
3794;DHT22;1912;51.358;12.282;2023-08-07T17:21:28;16.90;1.00
3794;DHT22;1912;51.358;12.282;2023-08-07T17:23:53;16.80;1.00
3794;DHT22;1912;51.358;12.282;2023-08-07T17:26:19;16.70;1.00
3794;DHT22;1912;51.358;12.282;2023-08-07T17:28:45;16.60;1.00
3794;DHT22;1912;51.358;12.282;2023-08-07T17:31:10;16.60;1.00
3794;DHT22;1912;51.358;12.282;2023-08-07T17:33:36;16.60;1.00
3794;DHT22;1912;51.358;12.282;2023-08-07T17:36:02;16.70;1.00
3794;DHT22;1912;51.358;12.282;2023-08-07T17:38:28;16.70;1.00
3794;DHT22;1912;51.358;12.282;2023-08-07T17:40:54;16.70;1.00
3794;DHT22;1912;51.358;12.282;2023-08-07T17:43:20;16.70;1.00
3794;DHT22;1912;51.358;12.282;2023-08-07T17:45:45;16.80;1.00
3794;DHT22;1912;51.358;12.282;2023-08-07T17:48:11;16.70;1.00
3794;DHT22;1912;51.358;12.282;2023-08-07T17:50:37;16.70;1.00
3794;DHT22;1912;51.358;12.282;2023-08-07T17:53:03;16.60;1.00
3794;DHT22;1912;51.358;12.282;2023-08-07T17:55:29;16.70;1.00
3794;DHT22;1912;51.358;12.282;2023-08-07T17:57:56;16.60;1.00
3794;DHT22;1912;51.358;12.282;2023-08-07T18:00:22;16.60;1.00
3794;DHT22;1912;51.358;12.282;2023-08-07T18:02:48;16.60;1.00
3794;DHT22;1912;51.358;12.282;2023-08-07T18:05:15;16.60;1.00
3794;DHT22;1912;51.358;12.282;2023-08-07T18:07:42;16.60;1.00
3794;DHT22;1912;51.358;12.282;2023-08-07T18:10:08;16.60;1.00
3794;DHT22;1912;51.358;12.282;2023-08-07T18:12:35;16.50;1.00
3794;DHT22;1912;51.358;12.282;2023-08-07T18:15:01;16.50;1.00
3794;DHT22;1912;51.358;12.282;2023-08-07T18:17:26;16.50;1.00
3794;DHT22;1912;51.358;12.282;2023-08-07T18:19:53;16.50;1.00
3794;DHT22;1912;51.358;12.282;2023-08-07T18:22:19;16.40;1.00
3794;DHT22;1912;51.358;12.282;2023-08-07T18:24:45;16.40;1.00
3794;DHT22;1912;51.358;12.282;2023-08-07T18:27:11;16.30;1.00
3794;DHT22;1912;51.358;12.282;2023-08-07T18:29:38;16.20;1.00
3794;DHT22;1912;51.358;12.282;2023-08-07T18:32:04;16.20;1.00
3794;DHT22;1912;51.358;12.282;2023-08-07T18:34:31;16.20;1.00
3794;DHT22;1912;51.358;12.282;2023-08-07T18:36:57;16.10;1.00
3794;DHT22;1912;51.358;12.282;2023-08-07T18:39:23;16.10;1.00
3794;DHT22;1912;51.358;12.282;2023-08-07T18:41:48;16.10;1.00
3794;DHT22;1912;51.358;12.282;2023-08-07T18:44:14;16.10;1.00
3794;DHT22;1912;51.358;12.282;2023-08-07T18:46:41;16.10;1.00
3794;DHT22;1912;51.358;12.282;2023-08-07T18:49:07;16.20;1.00
3794;DHT22;1912;51.358;12.282;2023-08-07T18:51:33;16.10;1.00
3794;DHT22;1912;51.358;12.282;2023-08-07T18:54:00;16.00;1.00
3794;DHT22;1912;51.358;12.282;2023-08-07T18:56:26;16.00;1.00
3794;DHT22;1912;51.358;12.282;2023-08-07T18:58:53;16.00;1.00
3794;DHT22;1912;51.358;12.282;2023-08-07T19:01:19;16.00;1.00
3794;DHT22;1912;51.358;12.282;2023-08-07T19:03:44;15.90;1.00
3794;DHT22;1912;51.358;12.282;2023-08-07T19:06:10;15.90;1.00
3794;DHT22;1912;51.358;12.282;2023-08-07T19:08:37;15.90;1.00
3794;DHT22;1912;51.358;12.282;2023-08-07T19:11:04;15.80;1.00
3794;DHT22;1912;51.358;12.282;2023-08-07T19:13:30;15.80;1.00
3794;DHT22;1912;51.358;12.282;2023-08-07T19:15:56;15.90;1.00
3794;DHT22;1912;51.358;12.282;2023-08-07T19:18:23;15.90;1.00
3794;DHT22;1912;51.358;12.282;2023-08-07T19:20:50;15.90;1.00
3794;DHT22;1912;51.358;12.282;2023-08-07T19:23:16;15.90;1.00
3794;DHT22;1912;51.358;12.282;2023-08-07T19:25:42;15.90;1.00
3794;DHT22;1912;51.358;12.282;2023-08-07T19:28:08;15.90;1.00
3794;DHT22;1912;51.358;12.282;2023-08-07T19:30:34;15.90;1.00
3794;DHT22;1912;51.358;12.282;2023-08-07T19:33:00;15.90;1.00
3794;DHT22;1912;51.358;12.282;2023-08-07T19:35:26;15.90;1.00
3794;DHT22;1912;51.358;12.282;2023-08-07T19:37:52;15.90;1.00
3794;DHT22;1912;51.358;12.282;2023-08-07T19:40:18;15.90;1.00
3794;DHT22;1912;51.358;12.282;2023-08-07T19:42:51;15.90;1.00
3794;DHT22;1912;51.358;12.282;2023-08-07T19:45:17;15.90;1.00
3794;DHT22;1912;51.358;12.282;2023-08-07T19:47:43;15.90;1.00
3794;DHT22;1912;51.358;12.282;2023-08-07T19:50:09;15.90;1.00
3794;DHT22;1912;51.358;12.282;2023-08-07T19:52:35;15.80;1.00
3794;DHT22;1912;51.358;12.282;2023-08-07T19:55:01;15.80;1.00
3794;DHT22;1912;51.358;12.282;2023-08-07T19:57:27;15.80;1.00